Stations météo

réclame
Mon MeteoGroup
Sutton bonington, Grande-Bretagne (99025): Température de l'air & dewpoint: 07.07.2020 01:00:00 - 13.07.2020 01:00:00 (BST)Sutton bonington, Grande-Bretagne (99025): Température de l'air -20cm & Température de l'air -100cm: 07.07.2020 01:00:00 - 13.07.2020 01:00:00 (BST)Sutton bonington, Grande-Bretagne (99025): Vitesse du vent: 07.07.2020 01:00:00 - 13.07.2020 01:00:00 (BST)Sutton bonington, Grande-Bretagne (99025): Direction du vent: 07.07.2020 01:00:00 - 13.07.2020 01:00:00 (BST)Sutton bonington, Grande-Bretagne (99025): Quantités de précipitations: 07.07.2020 01:00:00 - 13.07.2020 01:00:00 (BST)
Date & Time tt [°C] td [°C] tt -20cm [°C] tt -100cm [°C] ff [km/h] ff [knt] dd rr [mm]
13.07.2020 01:00:00 15,0 8,7 - - 5 3 SSW 0,0
13.07.2020 00:00:00 14,6 7,5 - - 5 3 W 0,0
12.07.2020 23:00:00 14,9 8,9 - - 8 4 SW 0,0
12.07.2020 22:00:00 16,5 9,3 - - 5 3 S 0,0
12.07.2020 21:00:00 19,5 8,8 - - 0 0 N 0,0
12.07.2020 20:00:00 19,5 8,0 - - 9 5 W 0,0
12.07.2020 19:00:00 19,9 7,4 - - 8 4 WSW 0,0
12.07.2020 18:00:00 22,0 8,8 - - 5 3 WSW 0,0
12.07.2020 17:00:00 20,8 8,0 - - 8 4 SSW 0,0
12.07.2020 16:00:00 20,3 7,6 - - 9 5 SSW 0,0
12.07.2020 15:00:00 20,4 9,4 - - 5 3 SW 0,0
12.07.2020 14:00:00 19,0 8,7 - - 9 5 SW 0,0
12.07.2020 13:00:00 18,3 8,5 - - 8 4 W 0,0
12.07.2020 12:00:00 17,2 8,2 - - 11 6 WNW 0,0
12.07.2020 11:00:00 16,5 7,3 - - 8 4 SW 0,0
12.07.2020 10:00:00 15,7 6,7 16,0 16,2 4 2 NW 0,0
12.07.2020 09:00:00 13,8 9,5 - - 4 2 W 0,0
12.07.2020 08:00:00 11,8 9,5 - - 0 0 N 0,0
12.07.2020 07:00:00 8,9 8,2 - - 2 1 NW 0,0
12.07.2020 06:00:00 7,3 7,1 - - 0 0 N 0,0
12.07.2020 05:00:00 5,6 5,3 - - 0 0 N 0,0
12.07.2020 04:00:00 6,2 5,8 - - 4 2 SSW 0,0
12.07.2020 03:00:00 6,4 6,0 - - 0 0 N 0,0
12.07.2020 02:00:00 7,0 6,2 - - 0 0 N 0,0
12.07.2020 01:00:00 8,2 7,3 - - 2 1 ENE 0,0
12.07.2020 00:00:00 9,1 7,1 - - 8 4 WSW 0,0
11.07.2020 23:00:00 11,2 6,8 - - 5 3 W 0,0
11.07.2020 22:00:00 11,8 6,8 - - 5 3 SSW 0,0
11.07.2020 21:00:00 14,3 7,6 - - 11 6 NW 0,0
11.07.2020 20:00:00 16,5 7,7 - - 11 6 NNW 0,0
11.07.2020 19:00:00 16,2 6,9 - - 13 7 NW 0,0
11.07.2020 18:00:00 18,2 7,9 - - 11 6 NNW 0,0
11.07.2020 17:00:00 17,2 6,7 - - 16 9 WNW 0,0
11.07.2020 16:00:00 17,9 7,5 - - 15 8 W 0,0
11.07.2020 15:00:00 18,4 9,1 - - 21 11 WNW 0,0
11.07.2020 14:00:00 17,4 9,9 - - 15 8 W 0,0
11.07.2020 13:00:00 16,5 8,2 - - 16 9 WNW 0,0
11.07.2020 12:00:00 15,6 8,2 - - 18 10 WNW 0,0
11.07.2020 11:00:00 15,6 9,9 - - 18 10 NW 0,0
11.07.2020 10:00:00 15,4 9,3 16,2 16,2 21 11 WNW 0,0
11.07.2020 09:00:00 14,2 9,9 - - 18 10 WNW 0,0
11.07.2020 08:00:00 12,6 9,7 - - 16 9 W 0,0
11.07.2020 07:00:00 11,3 9,4 - - 13 7 WNW 0,0
11.07.2020 06:00:00 10,3 9,0 - - 11 6 WNW 0,0
11.07.2020 05:00:00 9,4 8,2 - - 8 4 W 0,0
11.07.2020 04:00:00 9,6 8,2 - - 8 4 WNW 0,0
11.07.2020 03:00:00 10,5 8,8 - - 15 8 W 0,0
11.07.2020 02:00:00 10,2 8,6 - - 15 8 W 0,0
11.07.2020 01:00:00 10,1 8,1 - - 9 5 WNW 0,0
11.07.2020 00:00:00 10,2 7,9 - - 9 5 WSW 0,0
10.07.2020 23:00:00 10,9 8,0 - - 9 5 W 0,0
10.07.2020 22:00:00 12,0 8,1 - - 9 5 WNW 0,0
10.07.2020 21:00:00 14,2 7,8 - - 15 8 WNW 0,0
10.07.2020 20:00:00 15,5 8,2 - - 18 10 WNW 0,0
10.07.2020 19:00:00 14,2 10,3 - - 5 3 ENE 0,0
10.07.2020 18:00:00 15,4 8,9 - - 21 11 NNW 0,0
10.07.2020 17:00:00 17,1 9,5 - - 26 14 WNW 0,0
10.07.2020 16:00:00 16,4 9,8 - - 26 14 WNW 0,0
10.07.2020 15:00:00 15,8 9,4 - - 22 12 WNW 0,0
10.07.2020 14:00:00 15,1 10,2 - - 22 12 W 0,0
10.07.2020 13:00:00 14,6 9,7 - - 18 10 WNW 0,0
10.07.2020 12:00:00 15,7 10,5 - - 21 11 WNW 0,0
10.07.2020 11:00:00 15,3 8,8 - - 21 11 WNW 0,0
10.07.2020 10:00:00 14,8 9,7 16,2 16,5 22 12 WNW 0,0
10.07.2020 09:00:00 12,5 9,7 - - 15 8 W 0,0
10.07.2020 08:00:00 12,1 10,5 - - 16 9 WNW 0,0
10.07.2020 07:00:00 11,1 9,8 - - 16 9 W 0,0
10.07.2020 06:00:00 11,3 10,5 - - 11 6 W 0,2
10.07.2020 05:00:00 11,8 11,6 - - 9 5 W 0,2
10.07.2020 04:00:00 11,6 11,5 - - 5 3 WNW 0,4
10.07.2020 03:00:00 11,6 11,5 - - 4 2 WNW 0,0
10.07.2020 02:00:00 11,4 11,3 - - 4 2 NW 0,2
10.07.2020 01:00:00 11,4 11,1 - - 8 4 N 0,2
10.07.2020 00:00:00 11,6 11,3 - - 9 5 NNW 0,4
09.07.2020 23:00:00 11,8 11,5 - - 8 4 NNW 0,2
09.07.2020 22:00:00 11,9 11,5 - - 8 4 N 0,2
09.07.2020 21:00:00 12,1 11,6 - - 9 5 N 0,2
09.07.2020 20:00:00 12,4 11,6 - - 15 8 NNE 0,2
09.07.2020 19:00:00 12,6 12,1 - - 13 7 NNE 0,4
09.07.2020 18:00:00 13,0 12,5 - - 11 6 NNE 0,0
09.07.2020 17:00:00 13,2 12,4 - - 15 8 NE 0,0
09.07.2020 16:00:00 13,0 12,3 - - 15 8 NE 0,0
09.07.2020 15:00:00 13,5 12,8 - - 16 9 NE 0,2
09.07.2020 14:00:00 13,1 12,5 - - 15 8 NNE 0,0
09.07.2020 13:00:00 13,2 12,2 - - 16 9 NE 0,0
09.07.2020 12:00:00 13,2 12,2 - - 15 8 NE 0,0
09.07.2020 11:00:00 13,5 12,8 - - 16 9 NNE 0,0
09.07.2020 10:00:00 13,3 12,9 16,7 16,7 15 8 NNE 0,2
09.07.2020 09:00:00 13,3 13,0 - - 9 5 N 0,4
09.07.2020 08:00:00 13,4 13,1 - - 9 5 NNW 1,4
09.07.2020 07:00:00 15,2 14,8 - - 9 5 WSW 0,6
09.07.2020 06:00:00 15,2 14,7 - - 11 6 WSW 0,6
09.07.2020 05:00:00 15,4 14,6 - - 9 5 SW 0,0
09.07.2020 04:00:00 15,4 14,8 - - 9 5 SSW 0,0
09.07.2020 03:00:00 15,3 14,8 - - 9 5 SSW 0,0
09.07.2020 02:00:00 15,5 15,2 - - 11 6 SSW 0,4
09.07.2020 01:00:00 14,3 14,2 - - 4 2 SSE 1,2
09.07.2020 00:00:00 14,0 13,9 - - 5 3 E 1,6
08.07.2020 23:00:00 13,8 13,6 - - 8 4 E 3,6
08.07.2020 22:00:00 13,9 13,7 - - 4 2 E 0,8
08.07.2020 21:00:00 13,9 13,6 - - 9 5 E 0,6
08.07.2020 20:00:00 14,0 13,6 - - 9 5 ENE 1,0
08.07.2020 19:00:00 14,4 13,6 - - 9 5 E 0,8
08.07.2020 18:00:00 14,6 13,4 - - 11 6 E 0,4
08.07.2020 17:00:00 14,6 13,0 - - 9 5 ENE 0,0
08.07.2020 16:00:00 14,5 12,7 - - 13 7 ENE 0,0
08.07.2020 15:00:00 14,2 12,7 - - 11 6 E 0,0
08.07.2020 14:00:00 13,8 12,8 - - 18 10 ENE 0,0
08.07.2020 13:00:00 13,6 13,1 - - 15 8 NE 0,0
08.07.2020 12:00:00 13,2 12,5 - - 16 9 NE 0,2
08.07.2020 11:00:00 13,5 12,7 - - 13 7 NNE 0,0
08.07.2020 10:00:00 13,0 12,3 16,7 16,7 15 8 NNE 0,2
08.07.2020 09:00:00 13,6 13,1 - - 13 7 NNE 0,2
08.07.2020 08:00:00 13,4 13,2 - - 9 5 N 0,4
08.07.2020 07:00:00 13,6 13,1 - - 9 5 NNW 0,0
08.07.2020 06:00:00 14,4 14,1 - - 5 3 WSW 0,2
08.07.2020 05:00:00 14,2 13,8 - - 8 4 WSW 0,0
08.07.2020 04:00:00 14,2 13,7 - - 5 3 SW 0,0
08.07.2020 03:00:00 14,0 13,5 - - 4 2 SSW 0,0
08.07.2020 02:00:00 13,7 13,3 - - 5 3 S 0,4
08.07.2020 01:00:00 13,4 13,0 - - 5 3 SSE 0,0
08.07.2020 00:00:00 12,9 12,5 - - 8 4 SSE 0,0
07.07.2020 23:00:00 12,6 12,2 - - 8 4 SSE 0,0
07.07.2020 22:00:00 12,5 12,1 - - 8 4 SSE 0,2
07.07.2020 21:00:00 12,8 12,1 - - 4 2 SSE 0,0
07.07.2020 20:00:00 12,5 11,7 - - 8 4 SSW 0,2
07.07.2020 19:00:00 13,2 12,2 - - 2 1 S 0,0
07.07.2020 18:00:00 12,7 11,8 - - 5 3 SW 0,6
07.07.2020 17:00:00 12,4 11,2 - - 13 7 W 0,6
07.07.2020 16:00:00 12,3 11,1 - - 11 6 W 1,2
07.07.2020 15:00:00 12,7 11,7 - - 8 4 WSW 1,4
07.07.2020 14:00:00 11,8 10,2 - - 21 11 W 1,0
07.07.2020 13:00:00 15,5 10,8 - - 13 7 W 0,0
07.07.2020 12:00:00 14,7 10,7 - - 8 4 SW 0,0
07.07.2020 11:00:00 15,7 9,6 - - 9 5 W 0,0
07.07.2020 10:00:00 15,7 10,6 16,7 16,7 8 4 WSW 0,0
07.07.2020 09:00:00 14,5 10,1 - - 9 5 WSW 0,0
07.07.2020 08:00:00 13,6 10,3 - - 4 2 SSW 0,0
07.07.2020 07:00:00 12,0 10,1 - - 2 1 SSW 0,0
07.07.2020 06:00:00 12,0 10,0 - - 5 3 SSW 0,0
07.07.2020 05:00:00 11,8 9,7 - - 4 2 WSW 0,0
07.07.2020 04:00:00 11,9 9,4 - - 5 3 SW 0,0
07.07.2020 03:00:00 11,9 9,2 - - 5 3 WSW 0,0
07.07.2020 02:00:00 10,7 8,3 - - 5 3 WSW 0,0
07.07.2020 01:00:00 10,6 7,7 - - 5 3 SW 0,0

tt = Température de l'air
td = dewpoint
tt -20cm = Température de l'air -20cm
tt -100cm = Température de l'air -100cm
ff = Vitesse du vent
dd = Direction du vent
rr = Quantités de précipitations

stations d'obs. à proximité